Time;durP1;ratioP1;P1;durP2;ratioP2;P2;SDS_P1;SDS_P2;PMS_P1;PMS_P2;Temp;Humidity;BMP_temperature;BMP_pressure;BME280_temperature;BME280_humidity;BME280_pressure;Samples;Min_cycle;Max_cycle;Signal;HPM_P1;HPM_P2
2021/04/16 00:01:18;;;;;;;5.97;5.20;;;2.20;71.60;;;;;;6117062;23;20424;-87
2021/04/16 00:03:44;;;;;;;6.00;5.33;;;2.20;71.50;;;;;;6140118;23;20737;-87
2021/04/16 00:06:13;;;;;;;6.10;5.50;;;2.20;71.60;;;;;;6140329;23;20489;-86
2021/04/16 00:08:40;;;;;;;5.83;5.33;;;2.20;71.60;;;;;;6139335;23;20483;-87
2021/04/16 00:11:11;;;;;;;7.87;6.40;;;2.20;71.70;;;;;;6129188;23;20429;-87
2021/04/16 00:13:38;;;;;;;7.43;5.17;;;2.20;71.80;;;;;;6138622;23;20415;-87
2021/04/16 00:16:11;;;;;;;5.70;5.23;;;2.20;71.80;;;;;;6146244;23;20409;-87
2021/04/16 00:18:38;;;;;;;6.10;5.50;;;2.20;71.90;;;;;;6158918;23;20425;-87
2021/04/16 00:21:05;;;;;;;6.73;5.57;;;2.20;71.90;;;;;;6148839;23;20417;-87
2021/04/16 00:23:41;;;;;;;6.37;5.77;;;2.20;71.90;;;;;;6134000;23;20434;-87
2021/04/16 00:26:10;;;;;;;6.43;5.83;;;2.20;72.00;;;;;;6146235;23;20410;-88
2021/04/16 00:28:38;;;;;;;6.37;5.77;;;2.20;72.20;;;;;;6159268;23;20560;-86
2021/04/16 00:31:11;;;;;;;7.23;6.53;;;2.20;72.50;;;;;;6123537;23;20481;-86
2021/04/16 00:33:38;;;;;;;6.00;5.30;;;2.20;72.60;;;;;;6159374;23;20433;-87
2021/04/16 00:36:06;;;;;;;6.10;5.50;;;2.20;72.90;;;;;;6110899;23;20921;-86
2021/04/16 00:38:34;;;;;;;6.83;6.07;;;2.30;73.00;;;;;;6143537;23;20429;-87
2021/04/16 00:41:05;;;;;;;6.70;6.00;;;2.30;73.20;;;;;;6144947;23;20409;-87
2021/04/16 00:43:35;;;;;;;8.67;6.43;;;2.30;73.90;;;;;;6130027;23;20413;-87
2021/04/16 00:46:17;;;;;;;7.13;6.30;;;2.20;73.80;;;;;;6139100;23;20409;-87
2021/04/16 00:48:47;;;;;;;6.87;5.90;;;2.20;74.00;;;;;;6141447;23;20412;-86
2021/04/16 00:51:18;;;;;;;7.60;6.43;;;2.30;74.10;;;;;;6142006;23;20405;-87
2021/04/16 00:53:45;;;;;;;6.73;6.03;;;2.30;74.00;;;;;;6147826;23;20754;-87
2021/04/16 00:56:13;;;;;;;7.47;6.77;;;2.20;74.20;;;;;;6130830;23;20405;-87
2021/04/16 00:58:43;;;;;;;6.60;5.90;;;2.30;74.20;;;;;;6145479;23;20560;-86
2021/04/16 01:01:10;;;;;;;8.43;6.87;;;2.20;74.50;;;;;;6143225;23;20413;-87
2021/04/16 01:03:37;;;;;;;6.50;5.87;;;2.20;74.40;;;;;;6143516;23;20835;-87
2021/04/16 01:06:06;;;;;;;8.40;7.10;;;2.20;74.80;;;;;;6144151;23;20428;-86
2021/04/16 01:08:34;;;;;;;10.20;7.30;;;2.20;74.70;;;;;;6146124;23;20409;-86
2021/04/16 01:11:01;;;;;;;7.00;6.30;;;2.20;74.90;;;;;;6135716;23;20416;-87
2021/04/16 01:13:30;;;;;;;7.50;6.60;;;2.20;74.90;;;;;;6133719;23;20417;-87
2021/04/16 01:16:01;;;;;;;7.40;6.70;;;2.20;75.00;;;;;;6133584;23;20428;-86
2021/04/16 01:18:30;;;;;;;7.40;6.70;;;2.20;74.90;;;;;;6148850;23;20444;-86
2021/04/16 01:21:00;;;;;;;7.17;6.50;;;2.20;74.90;;;;;;6146539;23;20757;-87
2021/04/16 01:23:37;;;;;;;7.47;6.63;;;2.20;75.40;;;;;;6138318;23;20493;-87
2021/04/16 01:26:06;;;;;;;8.83;6.57;;;2.20;75.50;;;;;;6145700;23;20413;-86
2021/04/16 01:28:33;;;;;;;10.23;7.77;;;2.10;75.80;;;;;;6141577;23;20893;-87
2021/04/16 01:31:02;;;;;;;8.10;7.30;;;2.20;76.30;;;;;;6141125;23;20418;-87
2021/04/16 01:33:33;;;;;;;7.80;7.00;;;2.20;76.30;;;;;;6131835;23;20413;-87
2021/04/16 01:36:01;;;;;;;7.50;6.80;;;2.20;76.20;;;;;;6146352;23;20413;-87
2021/04/16 01:38:28;;;;;;;7.63;6.67;;;2.30;76.40;;;;;;6143489;23;20429;-87
2021/04/16 01:40:56;;;;;;;8.60;7.00;;;2.20;76.20;;;;;;6146425;23;20425;-87
2021/04/16 01:43:29;;;;;;;7.77;7.00;;;2.20;76.00;;;;;;6157206;23;20409;-87
2021/04/16 01:46:01;;;;;;;8.00;6.37;;;2.20;75.90;;;;;;6156988;23;20426;-87
2021/04/16 01:48:40;;;;;;;7.83;6.67;;;2.20;75.70;;;;;;6146385;23;20441;-86
2021/04/16 01:51:09;;;;;;;8.50;6.87;;;2.20;76.20;;;;;;6156484;23;20545;-87
2021/04/16 01:53:39;;;;;;;7.87;6.70;;;2.10;76.60;;;;;;6141416;23;20447;-87
2021/04/16 01:56:06;;;;;;;7.20;6.50;;;2.20;76.90;;;;;;6154821;23;20432;-87
2021/04/16 01:58:34;;;;;;;6.90;5.97;;;2.10;77.10;;;;;;6130257;23;20434;-86
2021/04/16 02:01:02;;;;;;;7.50;6.77;;;2.10;77.70;;;;;;6158205;23;20420;-87
2021/04/16 02:03:29;;;;;;;8.13;7.00;;;2.10;78.30;;;;;;6149997;23;20390;-86
2021/04/16 02:05:56;;;;;;;7.27;6.57;;;2.10;78.60;;;;;;6157038;23;20421;-86
2021/04/16 02:08:27;;;;;;;9.27;6.63;;;2.10;78.60;;;;;;6113901;23;20421;-86
2021/04/16 02:10:54;;;;;;;8.10;7.30;;;2.10;78.90;;;;;;6154406;23;20421;-87
2021/04/16 02:13:21;;;;;;;8.30;6.97;;;2.10;79.30;;;;;;6156168;23;20421;-87
2021/04/16 02:15:49;;;;;;;8.30;7.43;;;2.10;79.50;;;;;;6155897;23;20440;-87
2021/04/16 02:18:16;;;;;;;8.60;6.47;;;2.10;79.80;;;;;;6131281;23;20464;-87
2021/04/16 02:20:42;;;;;;;7.43;6.60;;;2.10;80.10;;;;;;6155903;23;20410;-87
2021/04/16 02:23:09;;;;;;;8.20;6.90;;;2.00;80.50;;;;;;6156443;23;20433;-87
2021/04/16 02:25:37;;;;;;;7.93;7.23;;;2.00;80.50;;;;;;6145734;23;20493;-86
2021/04/16 02:28:04;;;;;;;8.10;6.97;;;2.00;81.00;;;;;;6154990;23;20448;-86
2021/04/16 02:30:34;;;;;;;7.63;6.93;;;2.10;81.00;;;;;;6156802;23;20525;-87
2021/04/16 02:33:05;;;;;;;7.70;6.90;;;2.10;81.30;;;;;;6160465;23;20413;-87
2021/04/16 02:35:32;;;;;;;8.40;7.50;;;2.00;81.50;;;;;;6121862;23;20413;-86
2021/04/16 02:38:00;;;;;;;7.87;7.10;;;2.00;81.50;;;;;;6151184;23;20440;-86
2021/04/16 02:40:28;;;;;;;8.27;7.47;;;2.00;82.00;;;;;;6144161;23;20433;-85
2021/04/16 02:42:55;;;;;;;9.17;8.20;;;2.00;82.50;;;;;;6148798;23;20409;-86
2021/04/16 02:45:24;;;;;;;8.70;7.80;;;2.00;82.90;;;;;;6144937;23;20440;-86
2021/04/16 02:47:55;;;;;;;9.07;8.17;;;2.00;82.80;;;;;;6158155;23;20401;-86
2021/04/16 02:50:27;;;;;;;7.73;6.93;;;2.00;83.20;;;;;;6133200;23;20405;-86
2021/04/16 02:52:56;;;;;;;8.40;7.60;;;1.90;83.40;;;;;;6142737;23;20394;-87
2021/04/16 02:55:22;;;;;;;7.93;7.13;;;2.00;84.10;;;;;;6150284;23;20428;-87
2021/04/16 02:57:51;;;;;;;8.90;7.30;;;2.00;84.00;;;;;;6093655;23;20417;-87
2021/04/16 03:00:23;;;;;;;8.30;7.50;;;2.00;84.80;;;;;;6153924;23;20886;-87
2021/04/16 03:02:51;;;;;;;9.13;7.83;;;1.90;84.80;;;;;;6149750;23;20630;-87
2021/04/16 03:05:19;;;;;;;8.57;7.73;;;1.90;84.70;;;;;;6133778;23;20405;-87
2021/04/16 03:07:48;;;;;;;9.13;8.13;;;1.90;85.00;;;;;;6139791;23;20406;-87
2021/04/16 03:10:27;;;;;;;9.47;8.50;;;1.90;85.10;;;;;;6152270;23;20508;-86
2021/04/16 03:12:54;;;;;;;13.07;9.07;;;2.00;85.80;;;;;;6143755;23;20484;-86
2021/04/16 03:15:21;;;;;;;8.70;7.50;;;2.00;85.60;;;;;;6153882;23;20456;-86
2021/04/16 03:17:48;;;;;;;8.60;7.70;;;2.00;85.30;;;;;;6139798;23;20472;-86
2021/04/16 03:20:17;;;;;;;9.47;8.40;;;2.00;85.50;;;;;;6152452;23;20401;-87
2021/04/16 03:22:45;;;;;;;8.20;7.30;;;2.00;85.50;;;;;;6147727;23;20434;-87
2021/04/16 03:25:21;;;;;;;16.43;8.20;;;2.10;86.00;;;;;;6144969;23;20445;-86
2021/04/16 03:27:49;;;;;;;8.97;8.03;;;2.00;85.60;;;;;;6147332;23;20416;-86
2021/04/16 03:30:19;;;;;;;8.83;7.93;;;2.00;86.00;;;;;;6156609;23;20519;-88
2021/04/16 03:32:48;;;;;;;9.40;8.10;;;2.00;85.70;;;;;;6157246;23;20409;-87
2021/04/16 03:35:16;;;;;;;11.63;8.13;;;2.00;85.20;;;;;;6147640;23;20413;-87
2021/04/16 03:37:42;;;;;;;8.90;8.00;;;2.00;85.50;;;;;;6156037;23;20428;-87
2021/04/16 03:40:14;;;;;;;12.27;9.03;;;2.00;85.00;;;;;;6158750;23;20442;-87
2021/04/16 03:42:40;;;;;;;10.90;7.50;;;2.00;85.60;;;;;;6161931;23;20424;-86
2021/04/16 03:45:09;;;;;;;9.50;8.47;;;2.10;86.10;;;;;;6161629;23;20401;-87
2021/04/16 03:47:36;;;;;;;8.90;8.07;;;2.00;85.80;;;;;;6150548;23;20413;-87
2021/04/16 03:52:47;;;;;;;10.90;8.27;;;2.00;86.60;;;;;;6143805;23;20408;-86
2021/04/16 03:55:16;;;;;;;10.13;8.13;;;2.00;86.80;;;;;;6155478;23;20425;-85
2021/04/16 03:57:48;;;;;;;12.63;9.50;;;2.00;86.90;;;;;;6159117;23;20401;-86
2021/04/16 04:00:21;;;;;;;9.47;8.57;;;2.10;86.60;;;;;;6150024;23;20473;-86
2021/04/16 04:02:49;;;;;;;8.87;7.97;;;2.00;86.60;;;;;;6156570;23;20507;-85
2021/04/16 04:05:17;;;;;;;15.10;7.97;;;2.00;86.50;;;;;;6135995;23;20468;-85
2021/04/16 04:07:43;;;;;;;10.10;8.50;;;2.00;87.50;;;;;;6139872;23;20394;-86
2021/04/16 04:10:11;;;;;;;11.30;9.47;;;2.10;87.60;;;;;;6127641;23;20682;-86
2021/04/16 04:12:39;;;;;;;11.53;10.33;;;2.00;88.10;;;;;;6128724;23;20424;-85
2021/04/16 04:15:08;;;;;;;11.60;9.90;;;2.00;88.90;;;;;;6141926;23;20459;-85
2021/04/16 04:17:36;;;;;;;10.50;9.20;;;2.00;88.70;;;;;;6138003;23;20461;-84
2021/04/16 04:20:04;;;;;;;11.40;10.20;;;2.00;89.10;;;;;;6142898;23;20437;-85
2021/04/16 04:22:30;;;;;;;12.27;10.63;;;2.00;89.40;;;;;;6105567;23;20891;-85
2021/04/16 04:24:57;;;;;;;13.47;10.77;;;2.00;88.70;;;;;;6138932;23;20409;-86
2021/04/16 04:27:24;;;;;;;11.30;10.17;;;2.00;89.70;;;;;;6104121;23;20508;-85
2021/04/16 04:29:52;;;;;;;11.77;10.57;;;2.00;90.00;;;;;;6139714;23;20468;-85
2021/04/16 04:32:19;;;;;;;12.57;11.20;;;2.00;89.50;;;;;;6130987;23;20410;-85
2021/04/16 04:34:46;;;;;;;13.13;11.47;;;1.90;89.90;;;;;;6104480;23;20414;-85
2021/04/16 04:37:12;;;;;;;12.40;10.63;;;1.90;90.30;;;;;;6138607;23;20923;-85
2021/04/16 04:39:42;;;;;;;11.20;10.10;;;1.80;90.00;;;;;;6138770;23;20429;-85
2021/04/16 04:42:11;;;;;;;11.20;9.77;;;1.90;90.20;;;;;;6140709;23;20530;-85
2021/04/16 04:44:39;;;;;;;13.03;10.83;;;2.00;90.00;;;;;;6140580;23;20413;-85
2021/04/16 04:47:10;;;;;;;13.20;11.43;;;2.00;90.40;;;;;;6139277;23;20875;-84
2021/04/16 04:49:38;;;;;;;11.20;10.10;;;1.90;90.60;;;;;;6139247;23;20472;-85
2021/04/16 04:52:12;;;;;;;13.07;10.87;;;1.80;91.20;;;;;;6137972;23;20420;-85
2021/04/16 04:54:40;;;;;;;11.23;10.10;;;1.90;90.70;;;;;;6135928;23;20439;-85
2021/04/16 04:57:07;;;;;;;13.50;12.10;;;1.80;91.10;;;;;;6112341;23;20421;-85
2021/04/16 04:59:35;;;;;;;13.07;11.83;;;1.80;91.30;;;;;;6136903;23;20527;-86
2021/04/16 05:02:01;;;;;;;14.37;12.60;;;1.90;91.00;;;;;;6136738;23;20497;-86
2021/04/16 05:04:30;;;;;;;16.17;12.10;;;1.90;91.50;;;;;;6138020;23;20421;-85
2021/04/16 05:07:00;;;;;;;14.10;12.30;;;1.90;91.20;;;;;;6139447;23;20425;-86
2021/04/16 05:09:28;;;;;;;14.87;13.30;;;1.90;90.90;;;;;;6142329;23;20488;-85
2021/04/16 05:11:55;;;;;;;12.70;11.50;;;2.00;90.70;;;;;;6150621;23;20413;-86
2021/04/16 05:14:21;;;;;;;19.10;13.50;;;2.00;90.20;;;;;;6150171;23;20428;-86
2021/04/16 05:16:49;;;;;;;13.80;12.40;;;1.90;90.80;;;;;;6145291;23;20445;-85
2021/04/16 05:19:16;;;;;;;14.13;12.47;;;2.00;91.00;;;;;;6143639;23;20436;-85
2021/04/16 05:21:45;;;;;;;14.17;12.70;;;2.00;90.80;;;;;;6146550;23;20421;-85
2021/04/16 05:24:13;;;;;;;14.43;13.03;;;2.20;90.40;;;;;;6109072;23;20461;-85
2021/04/16 05:26:41;;;;;;;12.90;11.60;;;2.30;87.10;;;;;;6135827;23;20444;-85
2021/04/16 05:29:11;;;;;;;15.13;12.97;;;2.20;88.00;;;;;;6146837;23;20468;-85
2021/04/16 05:31:38;;;;;;;13.57;11.67;;;2.40;87.20;;;;;;6133787;23;20862;-86
2021/04/16 05:34:05;;;;;;;13.73;12.43;;;2.50;87.00;;;;;;6144048;23;20488;-84
2021/04/16 05:36:32;;;;;;;16.50;11.17;;;2.80;86.10;;;;;;6113025;23;20417;-85
2021/04/16 05:39:01;;;;;;;11.63;10.60;;;3.20;82.60;;;;;;6138228;23;20499;-84
2021/04/16 05:41:28;;;;;;;12.13;10.90;;;3.40;79.00;;;;;;6144414;23;20759;-85
2021/04/16 05:43:56;;;;;;;12.10;10.93;;;3.70;77.50;;;;;;6141583;23;20414;-85
2021/04/16 05:46:23;;;;;;;11.47;10.27;;;3.60;78.70;;;;;;6139179;23;20417;-85
2021/04/16 05:48:52;;;;;;;13.17;9.77;;;3.50;78.00;;;;;;6137750;23;20440;-85
2021/04/16 05:51:19;;;;;;;11.77;10.23;;;3.70;77.60;;;;;;6142613;23;20476;-86
2021/04/16 05:53:47;;;;;;;11.20;10.00;;;4.10;76.20;;;;;;6141503;23;20436;-85
2021/04/16 05:56:15;;;;;;;11.63;9.77;;;3.90;74.10;;;;;;6139208;23;20444;-85
2021/04/16 05:58:44;;;;;;;10.13;9.10;;;4.10;74.00;;;;;;6141721;23;20464;-87
2021/04/16 06:01:11;;;;;;;10.03;8.43;;;4.10;73.30;;;;;;6140452;23;20440;-86
2021/04/16 06:03:39;;;;;;;8.60;7.80;;;3.90;74.60;;;;;;6128321;23;20557;-85
2021/04/16 06:06:05;;;;;;;10.63;8.50;;;3.90;73.60;;;;;;6138788;23;20417;-85
2021/04/16 06:08:34;;;;;;;9.43;8.60;;;3.90;73.30;;;;;;6127900;23;20486;-86
2021/04/16 06:11:01;;;;;;;9.10;8.20;;;3.90;73.30;;;;;;6141050;23;20532;-83
2021/04/16 06:13:29;;;;;;;7.90;7.03;;;3.70;72.90;;;;;;6143586;23;20408;-83
2021/04/16 06:15:59;;;;;;;8.80;7.90;;;3.80;72.80;;;;;;6142088;23;20468;-84
2021/04/16 06:18:27;;;;;;;7.80;7.10;;;3.80;72.60;;;;;;6141359;23;20499;-83
2021/04/16 06:20:55;;;;;;;7.23;6.60;;;3.90;71.90;;;;;;6143039;23;20423;-84
2021/04/16 06:23:21;;;;;;;12.07;7.37;;;3.80;71.80;;;;;;6151031;23;20432;-84
2021/04/16 06:25:48;;;;;;;8.00;7.20;;;3.80;71.60;;;;;;6152691;23;20420;-84
2021/04/16 06:28:16;;;;;;;8.03;7.27;;;4.00;71.00;;;;;;6152808;23;20961;-84
2021/04/16 06:30:44;;;;;;;7.30;6.60;;;4.30;71.20;;;;;;6153180;23;20485;-83
2021/04/16 06:33:19;;;;;;;8.20;7.40;;;4.20;69.20;;;;;;6137418;23;20409;-84
2021/04/16 06:35:49;;;;;;;9.50;6.87;;;4.20;69.00;;;;;;6148001;23;20417;-85
2021/04/16 06:38:17;;;;;;;6.30;5.57;;;3.90;68.80;;;;;;6150178;23;20413;-84
2021/04/16 06:40:47;;;;;;;6.67;6.07;;;3.80;68.80;;;;;;6151291;23;20410;-83
2021/04/16 06:43:14;;;;;;;6.73;6.10;;;4.20;68.40;;;;;;6140937;23;20406;-83
2021/04/16 06:45:41;;;;;;;7.50;6.43;;;4.10;68.40;;;;;;6148854;23;20413;-83
2021/04/16 06:48:11;;;;;;;5.83;5.33;;;4.40;67.70;;;;;;6152858;23;20423;-83
2021/04/16 06:50:39;;;;;;;6.17;5.67;;;4.60;67.50;;;;;;6127547;23;20417;-82
2021/04/16 06:53:12;;;;;;;5.83;5.33;;;4.40;66.70;;;;;;6152697;23;20426;-83
2021/04/16 06:55:50;;;;;;;6.13;5.53;;;4.60;66.10;;;;;;6155075;23;20395;-84
2021/04/16 06:58:20;;;;;;;6.20;5.60;;;4.80;65.30;;;;;;6143430;23;20410;-83
2021/04/16 07:00:56;;;;;;;6.43;5.77;;;4.30;64.80;;;;;;6157091;23;20502;-84
2021/04/16 07:03:27;;;;;;;6.83;5.93;;;4.20;65.60;;;;;;6145739;23;20397;-84
2021/04/16 07:05:57;;;;;;;5.57;5.07;;;4.20;65.50;;;;;;6141546;23;20469;-83
2021/04/16 07:08:31;;;;;;;6.40;5.80;;;4.60;64.60;;;;;;6148797;23;20414;-84
2021/04/16 07:10:59;;;;;;;5.87;5.37;;;4.40;64.60;;;;;;6146581;23;20405;-83
2021/04/16 07:13:32;;;;;;;7.10;6.50;;;4.60;64.80;;;;;;6148785;23;20418;-84
2021/04/16 07:15:59;;;;;;;7.50;6.80;;;4.40;64.20;;;;;;6151297;23;20436;-83
2021/04/16 07:18:33;;;;;;;6.90;6.30;;;4.30;64.40;;;;;;6153389;23;20200;-84
2021/04/16 07:21:00;;;;;;;6.88;6.28;;;4.90;64.10;;;;;;6150676;23;20410;-86
2021/04/16 07:23:27;;;;;;;6.73;6.10;;;4.70;64.10;;;;;;6146761;23;20507;-84
2021/04/16 07:26:18;;;;;;;6.47;5.80;;;5.00;63.30;;;;;;6136588;23;20421;-83
2021/04/16 07:28:52;;;;;;;7.43;6.78;;;5.60;63.30;;;;;;6151575;23;20417;-87
2021/04/16 07:31:42;;;;;;;6.40;5.90;;;5.80;61.80;;;;;;6147194;23;20199;-87
2021/04/16 07:34:29;;;;;;;6.87;6.30;;;6.10;60.80;;;;;;6139266;23;20456;-86
2021/04/16 07:36:57;;;;;;;7.45;6.80;;;5.80;60.70;;;;;;6133371;23;20893;-86
2021/04/16 07:39:30;;;;;;;7.50;6.87;;;5.50;58.80;;;;;;6141709;23;20476;-87
2021/04/16 07:42:14;;;;;;;8.13;7.10;;;6.20;58.00;;;;;;6143465;23;20508;-85
2021/04/16 07:44:56;;;;;;;7.80;7.10;;;5.70;57.30;;;;;;6141063;23;20416;-87
2021/04/16 07:47:25;;;;;;;6.57;5.93;;;5.20;57.50;;;;;;6137147;23;20433;-88
2021/04/16 07:50:00;;;;;;;7.63;6.87;;;5.80;57.40;;;;;;6141956;23;20410;-88
2021/04/16 07:52:34;;;;;;;7.20;6.60;;;5.30;57.70;;;;;;6130982;23;20503;-88
2021/04/16 07:55:23;;;;;;;8.07;7.27;;;5.70;57.00;;;;;;6137671;23;20486;-86
2021/04/16 07:58:05;;;;;;;8.10;7.30;;;5.50;57.10;;;;;;6141159;23;20736;-84
2021/04/16 08:00:36;;;;;;;7.30;6.60;;;5.00;57.20;;;;;;6144359;23;20580;-83
2021/04/16 08:03:07;;;;;;;8.03;7.33;;;4.80;56.80;;;;;;6143979;23;20414;-84
2021/04/16 08:05:38;;;;;;;8.30;7.40;;;5.10;56.60;;;;;;6143068;23;20464;-84
2021/04/16 08:08:21;;;;;;;7.37;6.67;;;5.40;56.30;;;;;;6142301;23;20679;-85
2021/04/16 08:10:50;;;;;;;7.77;7.07;;;6.50;56.20;;;;;;6148351;23;20426;-84
2021/04/16 08:13:20;;;;;;;7.07;6.37;;;6.60;54.70;;;;;;6152512;23;20411;-85
2021/04/16 08:15:47;;;;;;;7.50;4.97;;;6.20;54.80;;;;;;6156449;23;20419;-84
2021/04/16 08:18:23;;;;;;;5.97;5.47;;;6.00;53.20;;;;;;6150354;23;20398;-85
2021/04/16 08:21:01;;;;;;;8.00;6.10;;;5.90;53.50;;;;;;6155765;23;20471;-84
2021/04/16 08:23:32;;;;;;;7.00;6.07;;;6.00;53.70;;;;;;6145541;23;20445;-84
2021/04/16 08:26:00;;;;;;;7.00;5.67;;;5.80;54.10;;;;;;6143619;23;21011;-85
2021/04/16 08:28:32;;;;;;;7.00;6.30;;;5.90;53.30;;;;;;6140432;23;20857;-84
2021/04/16 08:31:05;;;;;;;8.20;7.47;;;5.70;54.60;;;;;;6136679;23;20505;-85
2021/04/16 08:33:37;;;;;;;8.63;7.82;;;5.30;54.70;;;;;;6134719;23;20528;-86
2021/04/16 08:36:15;;;;;;;8.10;7.40;;;5.30;55.30;;;;;;6127428;23;20421;-85
2021/04/16 08:38:54;;;;;;;8.85;8.02;;;5.70;55.00;;;;;;6136207;23;20738;-86
2021/04/16 08:41:22;;;;;;;9.80;8.23;;;5.80;55.10;;;;;;6131091;23;20425;-89
2021/04/16 08:43:53;;;;;;;6.20;5.70;;;6.00;55.10;;;;;;6137967;23;20239;-87
2021/04/16 08:46:27;;;;;;;8.82;6.47;;;6.10;53.70;;;;;;6138284;23;20747;-89
2021/04/16 08:49:00;;;;;;;5.97;5.47;;;6.50;52.90;;;;;;6127200;23;20176;-87
2021/04/16 08:51:32;;;;;;;5.53;5.00;;;6.80;52.80;;;;;;6139669;23;20548;-87
2021/04/16 08:54:02;;;;;;;5.60;5.10;;;7.20;52.30;;;;;;6143703;23;20416;-89
2021/04/16 08:56:34;;;;;;;5.80;5.20;;;7.30;51.60;;;;;;6140560;23;20507;-88
2021/04/16 08:59:12;;;;;;;5.67;4.70;;;7.00;51.60;;;;;;6139727;23;20525;-90
2021/04/16 09:01:58;;;;;;;4.50;4.10;;;7.10;50.20;;;;;;6130038;23;20418;-90
2021/04/16 09:04:48;;;;;;;5.13;4.63;;;6.60;50.30;;;;;;6140290;23;20398;-87
2021/04/16 09:07:45;;;;;;;4.40;4.00;;;6.30;50.30;;;;;;6105861;23;20578;-88
2021/04/16 09:13:52;;;;;;;5.90;5.30;;;6.10;51.60;;;;;;6139881;23;20417;-88
2021/04/16 09:16:52;;;;;;;6.38;5.22;;;6.70;52.20;;;;;;6125792;23;20468;-89
2021/04/16 09:20:07;;;;;;;5.00;4.57;;;6.60;52.30;;;;;;6134433;23;20544;-88
2021/04/16 09:22:45;;;;;;;5.27;4.77;;;7.10;50.80;;;;;;6131854;23;20463;-88
2021/04/16 09:25:52;;;;;;;5.13;4.73;;;6.90;50.90;;;;;;6141539;23;20411;-87
2021/04/16 09:28:54;;;;;;;5.95;5.45;;;6.40;50.70;;;;;;6138604;23;20425;-88
2021/04/16 09:31:50;;;;;;;5.73;5.23;;;6.90;50.90;;;;;;6150489;23;20170;-91
2021/04/16 09:34:20;;;;;;;6.20;5.70;;;7.00;51.30;;;;;;6148554;23;20497;-86
2021/04/16 09:36:51;;;;;;;5.17;4.77;;;7.20;50.00;;;;;;6148119;23;20585;-89
2021/04/16 09:39:35;;;;;;;4.73;4.33;;;7.40;49.60;;;;;;6134272;23;20688;-88
2021/04/16 09:42:28;;;;;;;5.47;4.97;;;7.00;50.20;;;;;;6135399;23;20408;-85
2021/04/16 09:44:58;;;;;;;5.00;4.60;;;6.70;49.50;;;;;;6145175;23;20423;-83
2021/04/16 09:47:44;;;;;;;5.95;5.35;;;7.50;50.30;;;;;;6112903;23;20806;-75
2021/04/16 09:50:34;;;;;;;5.77;5.27;;;6.20;49.10;;;;;;6124227;23;20612;-74
2021/04/16 09:53:19;;;;;;;5.13;4.63;;;6.80;50.10;;;;;;6123729;23;20444;-74
2021/04/16 09:59:40;;;;;;;4.73;4.33;;;6.60;50.20;;;;;;6030038;23;20559;-82
2021/04/16 10:02:21;;;;;;;6.10;4.10;;;6.90;49.50;;;;;;6029407;23;20420;-81
2021/04/16 10:04:59;;;;;;;5.10;4.60;;;7.20;49.40;;;;;;6142841;23;20426;-84
2021/04/16 10:07:37;;;;;;;3.90;3.50;;;6.90;48.90;;;;;;6142075;23;20430;-87
2021/04/16 10:10:17;;;;;;;4.47;3.90;;;6.50;48.20;;;;;;6137055;23;20432;-82
2021/04/16 10:12:44;;;;;;;3.80;3.50;;;5.90;48.80;;;;;;6147189;23;20414;-82
2021/04/16 10:18:33;;;;;;;5.13;4.63;;;7.10;48.90;;;;;;6081203;23;20724;-83
2021/04/16 10:21:38;;;;;;;4.70;4.23;;;6.70;49.70;;;;;;6115373;23;20415;-81
2021/04/16 12:40:22;;;;;;;7.47;6.13;;;8.00;50.10;;;;;;6168488;23;20524;-85
2021/04/16 12:42:49;;;;;;;8.25;7.50;;;8.00;50.30;;;;;;6176380;23;20875;-79
2021/04/16 12:45:18;;;;;;;8.03;7.23;;;8.00;50.60;;;;;;6166319;23;20169;-80
2021/04/16 12:47:45;;;;;;;7.23;6.60;;;7.40;51.10;;;;;;6176180;23;20408;-89
2021/04/16 12:50:14;;;;;;;6.73;6.13;;;7.30;50.70;;;;;;6176570;23;20411;-80
2021/04/16 12:52:40;;;;;;;7.57;6.87;;;7.40;51.30;;;;;;6174609;23;20406;-80
2021/04/16 12:55:08;;;;;;;9.07;7.90;;;6.50;51.50;;;;;;6163628;23;20416;-83
2021/04/16 12:57:38;;;;;;;12.90;7.43;;;7.00;52.30;;;;;;6163049;23;20414;-80
2021/04/16 13:00:08;;;;;;;8.47;7.67;;;6.80;52.40;;;;;;6135655;23;20828;-80
2021/04/16 13:02:35;;;;;;;8.53;7.63;;;7.00;52.40;;;;;;6138191;23;20407;-82
2021/04/16 13:05:06;;;;;;;8.00;7.30;;;6.80;52.20;;;;;;6146477;23;20433;-80
2021/04/16 13:07:33;;;;;;;8.70;7.60;;;6.90;52.30;;;;;;6151892;23;20423;-84
2021/04/16 13:09:59;;;;;;;7.80;6.70;;;6.50;52.80;;;;;;6149185;23;20424;-79
2021/04/16 13:12:26;;;;;;;8.40;7.60;;;6.40;53.00;;;;;;6145902;23;20482;-81
2021/04/16 13:14:54;;;;;;;7.30;6.70;;;6.40;53.20;;;;;;6146243;23;20465;-82
2021/04/16 13:17:24;;;;;;;8.70;7.90;;;6.70;53.70;;;;;;6143224;23;20904;-85
2021/04/16 13:19:54;;;;;;;9.73;8.82;;;6.70;54.20;;;;;;6138378;23;20418;-77
2021/04/16 13:22:23;;;;;;;9.43;8.43;;;6.60;53.70;;;;;;6128671;23;20418;-77
2021/04/16 13:24:50;;;;;;;11.00;8.00;;;6.60;53.80;;;;;;6129348;23;20173;-77
2021/04/16 13:27:21;;;;;;;9.23;8.33;;;6.70;53.50;;;;;;6138809;23;20398;-77
2021/04/16 13:29:51;;;;;;;9.20;8.40;;;7.00;53.60;;;;;;6138568;23;20414;-77
2021/04/16 13:32:20;;;;;;;9.17;8.30;;;6.70;53.00;;;;;;6140031;23;20426;-77
2021/04/16 13:34:48;;;;;;;8.63;7.93;;;6.60;52.40;;;;;;6142896;23;20395;-77
2021/04/16 13:37:18;;;;;;;9.17;8.37;;;6.80;52.90;;;;;;6139168;23;20454;-77
2021/04/16 13:40:07;;;;;;;8.73;7.73;;;6.70;53.30;;;;;;6127922;23;20462;-79
2021/04/16 13:42:37;;;;;;;8.60;7.80;;;6.20;53.00;;;;;;6143591;23;20522;-78
2021/04/16 13:45:12;;;;;;;8.40;7.70;;;6.20;53.30;;;;;;6143232;23;20414;-79
2021/04/16 13:47:42;;;;;;;8.50;7.70;;;6.40;52.40;;;;;;6142047;23;20420;-76
2021/04/16 13:50:14;;;;;;;7.73;6.93;;;6.90;53.20;;;;;;6140143;23;20897;-77
2021/04/16 13:52:41;;;;;;;8.07;7.30;;;6.50;53.00;;;;;;6139449;23;20438;-77
2021/04/16 13:55:12;;;;;;;8.33;7.53;;;6.50;53.90;;;;;;6141633;23;20445;-76
2021/04/16 13:57:39;;;;;;;8.35;7.55;;;6.40;53.50;;;;;;6141865;23;20435;-79
2021/04/16 14:04:00;;;;;;;9.10;7.13;;;6.60;53.60;;;;;;6145956;23;20394;-77
2021/04/16 14:07:05;;;;;;;7.47;6.60;;;6.50;54.10;;;;;;6142416;23;20398;-75
2021/04/16 14:09:32;;;;;;;8.23;7.40;;;6.20;53.50;;;;;;6139025;23;20409;-76
2021/04/16 14:11:59;;;;;;;11.23;7.93;;;6.30;54.00;;;;;;6129257;23;20417;-77
2021/04/16 14:14:50;;;;;;;10.03;7.90;;;6.60;53.80;;;;;;6131749;23;20474;-77
2021/04/16 14:17:41;;;;;;;9.27;7.97;;;6.40;53.40;;;;;;6140330;23;20417;-79
2021/04/16 14:20:16;;;;;;;8.97;8.07;;;6.40;53.50;;;;;;6149325;23;20482;-79
2021/04/16 14:22:45;;;;;;;8.73;7.93;;;6.50;54.30;;;;;;6140548;23;20432;-79
2021/04/16 14:25:15;;;;;;;7.87;7.13;;;6.20;54.70;;;;;;6130021;23;20536;-79
2021/04/16 14:27:43;;;;;;;8.00;7.30;;;6.20;54.60;;;;;;6142553;23;20425;-78
2021/04/16 14:30:14;;;;;;;8.43;7.43;;;6.10;54.60;;;;;;6133353;23;20473;-80
2021/04/16 14:32:49;;;;;;;8.53;7.80;;;6.10;55.20;;;;;;6155300;23;20434;-79
2021/04/16 14:35:16;;;;;;;9.37;8.23;;;6.00;55.00;;;;;;6143748;23;20895;-79
2021/04/16 14:37:42;;;;;;;8.00;7.20;;;6.10;54.80;;;;;;6145276;23;20411;-79
2021/04/16 14:40:11;;;;;;;8.37;7.47;;;6.10;55.30;;;;;;6141045;23;20433;-79
2021/04/16 14:42:38;;;;;;;7.63;6.93;;;6.60;55.20;;;;;;6141028;23;20440;-81
2021/04/16 14:45:10;;;;;;;8.20;7.23;;;6.00;54.60;;;;;;6143659;23;20411;-79
2021/04/16 14:47:36;;;;;;;9.00;8.10;;;6.00;54.80;;;;;;6140252;23;20422;-81
2021/04/16 14:50:04;;;;;;;8.90;7.20;;;5.60;54.50;;;;;;6139505;23;21197;-79
2021/04/16 14:52:31;;;;;;;8.03;7.33;;;5.80;54.80;;;;;;6139425;23;20909;-78
2021/04/16 14:54:58;;;;;;;6.87;6.27;;;6.20;55.20;;;;;;6139976;23;20441;-77
2021/04/16 14:57:28;;;;;;;10.40;8.00;;;6.40;55.50;;;;;;6126549;23;20410;-78
2021/04/16 14:59:56;;;;;;;9.07;8.17;;;6.20;55.50;;;;;;6138861;23;20455;-78
2021/04/16 15:02:24;;;;;;;9.17;8.37;;;6.10;55.40;;;;;;6143269;23;20419;-87
2021/04/16 15:04:50;;;;;;;9.13;8.23;;;6.00;55.70;;;;;;6143732;23;20421;-87
2021/04/16 15:07:22;;;;;;;9.50;8.70;;;6.10;55.70;;;;;;6150299;23;20414;-85
2021/04/16 15:09:53;;;;;;;9.20;8.30;;;6.10;55.50;;;;;;6137516;23;20434;-87
2021/04/16 15:12:22;;;;;;;9.00;8.20;;;6.00;55.50;;;;;;6153501;23;20413;-84
2021/04/16 15:14:50;;;;;;;9.90;8.07;;;6.30;55.30;;;;;;6139143;23;20449;-84
2021/04/16 15:17:17;;;;;;;9.43;8.53;;;6.40;55.20;;;;;;6139930;23;20452;-86
2021/04/16 15:19:46;;;;;;;7.90;7.20;;;;;;;;;;6139001;23;20436;-83
2021/04/16 15:22:16;;;;;;;8.37;7.63;;;6.80;54.70;;;;;;6142427;23;20418;-84
2021/04/16 15:24:43;;;;;;;8.60;7.67;;;6.70;55.10;;;;;;6141279;23;20405;-84
2021/04/16 15:27:12;;;;;;;8.80;8.00;;;6.50;55.40;;;;;;6141124;23;20423;-85
2021/04/16 15:29:41;;;;;;;8.50;7.80;;;6.60;55.40;;;;;;6141754;23;20429;-84
2021/04/16 15:32:12;;;;;;;8.20;7.40;;;6.40;55.30;;;;;;6140217;23;20426;-83
2021/04/16 15:48:05;;;;;;;9.00;8.10;;;6.50;55.00;;;;;;6139429;23;20410;-87
2021/04/16 15:50:38;;;;;;;8.87;8.07;;;6.80;55.20;;;;;;6140536;23;20405;-84
2021/04/16 15:53:06;;;;;;;9.20;8.30;;;6.60;55.20;;;;;;6139491;23;20501;-85
2021/04/16 15:55:33;;;;;;;8.70;7.83;;;6.60;55.60;;;;;;6143477;23;20409;-87
2021/04/16 15:58:00;;;;;;;8.70;7.90;;;6.30;55.20;;;;;;6146566;23;20469;-84
2021/04/16 16:00:33;;;;;;;9.03;7.87;;;6.50;55.50;;;;;;6143654;23;20519;-85